sensor_id;sensor_type;location;lat;lon;timestamp;P1;durP1;ratioP1;P2;durP2;ratioP2
81265;SDS011;70748;52.510;13.410;2023-08-12T00:00:15;9.80;;;4.50;;
81265;SDS011;70748;52.510;13.410;2023-08-12T00:02:42;9.45;;;4.60;;
81265;SDS011;70748;52.510;13.410;2023-08-12T00:05:09;6.45;;;4.28;;
81265;SDS011;70748;52.510;13.410;2023-08-12T00:07:36;9.85;;;4.50;;
81265;SDS011;70748;52.510;13.410;2023-08-12T00:10:02;6.82;;;4.32;;
81265;SDS011;70748;52.510;13.410;2023-08-12T00:12:30;7.70;;;4.18;;
81265;SDS011;70748;52.510;13.410;2023-08-12T00:14:56;6.82;;;4.28;;
81265;SDS011;70748;52.510;13.410;2023-08-12T00:17:22;6.78;;;4.60;;
81265;SDS011;70748;52.510;13.410;2023-08-12T00:19:48;11.55;;;4.40;;
81265;SDS011;70748;52.510;13.410;2023-08-12T00:22:14;12.75;;;4.97;;
81265;SDS011;70748;52.510;13.410;2023-08-12T00:24:39;7.85;;;4.40;;
81265;SDS011;70748;52.510;13.410;2023-08-12T00:27:05;7.63;;;4.30;;
81265;SDS011;70748;52.510;13.410;2023-08-12T00:29:33;8.88;;;4.05;;
81265;SDS011;70748;52.510;13.410;2023-08-12T00:31:59;7.00;;;4.43;;
81265;SDS011;70748;52.510;13.410;2023-08-12T00:34:25;6.82;;;4.70;;
81265;SDS011;70748;52.510;13.410;2023-08-12T00:36:50;6.05;;;4.15;;
81265;SDS011;70748;52.510;13.410;2023-08-12T00:39:16;11.13;;;4.57;;
81265;SDS011;70748;52.510;13.410;2023-08-12T00:41:42;7.82;;;4.20;;
81265;SDS011;70748;52.510;13.410;2023-08-12T00:44:07;6.22;;;4.10;;
81265;SDS011;70748;52.510;13.410;2023-08-12T00:46:33;6.68;;;4.35;;
81265;SDS011;70748;52.510;13.410;2023-08-12T00:49:01;6.90;;;3.97;;
81265;SDS011;70748;52.510;13.410;2023-08-12T00:51:27;5.47;;;4.30;;
81265;SDS011;70748;52.510;13.410;2023-08-12T00:53:53;8.18;;;4.85;;
81265;SDS011;70748;52.510;13.410;2023-08-12T00:56:22;7.68;;;4.30;;
81265;SDS011;70748;52.510;13.410;2023-08-12T00:58:47;8.40;;;4.22;;
81265;SDS011;70748;52.510;13.410;2023-08-12T01:01:13;9.23;;;4.65;;
81265;SDS011;70748;52.510;13.410;2023-08-12T01:03:39;7.53;;;4.32;;
81265;SDS011;70748;52.510;13.410;2023-08-12T01:06:06;4.90;;;4.00;;
81265;SDS011;70748;52.510;13.410;2023-08-12T01:08:32;8.02;;;4.20;;
81265;SDS011;70748;52.510;13.410;2023-08-12T01:11:04;7.70;;;4.43;;
81265;SDS011;70748;52.510;13.410;2023-08-12T01:14:12;8.80;;;4.00;;
81265;SDS011;70748;52.510;13.410;2023-08-12T01:16:53;5.20;;;4.00;;
81265;SDS011;70748;52.510;13.410;2023-08-12T01:19:34;6.32;;;4.10;;
81265;SDS011;70748;52.510;13.410;2023-08-12T01:22:05;5.88;;;4.03;;
81265;SDS011;70748;52.510;13.410;2023-08-12T01:24:33;11.60;;;4.10;;
81265;SDS011;70748;52.510;13.410;2023-08-12T01:27:03;6.88;;;4.25;;
81265;SDS011;70748;52.510;13.410;2023-08-12T01:29:29;16.63;;;4.72;;
81265;SDS011;70748;52.510;13.410;2023-08-12T01:32:20;6.47;;;4.10;;
81265;SDS011;70748;52.510;13.410;2023-08-12T01:35:25;15.05;;;4.30;;
81265;SDS011;70748;52.510;13.410;2023-08-12T01:37:45;5.85;;;4.18;;
81265;SDS011;70748;52.510;13.410;2023-08-12T01:40:14;8.85;;;4.28;;
81265;SDS011;70748;52.510;13.410;2023-08-12T01:42:41;6.38;;;4.43;;
81265;SDS011;70748;52.510;13.410;2023-08-12T01:45:08;6.53;;;3.60;;
81265;SDS011;70748;52.510;13.410;2023-08-12T01:47:34;7.65;;;4.32;;
81265;SDS011;70748;52.510;13.410;2023-08-12T01:49:59;6.47;;;4.30;;
81265;SDS011;70748;52.510;13.410;2023-08-12T01:52:25;7.15;;;4.13;;
81265;SDS011;70748;52.510;13.410;2023-08-12T01:54:51;4.68;;;3.90;;
81265;SDS011;70748;52.510;13.410;2023-08-12T01:57:16;9.02;;;4.40;;
81265;SDS011;70748;52.510;13.410;2023-08-12T01:59:42;6.45;;;3.95;;
81265;SDS011;70748;52.510;13.410;2023-08-12T02:02:11;7.20;;;4.05;;
81265;SDS011;70748;52.510;13.410;2023-08-12T02:04:37;5.60;;;4.15;;
81265;SDS011;70748;52.510;13.410;2023-08-12T02:07:04;6.32;;;4.30;;
81265;SDS011;70748;52.510;13.410;2023-08-12T02:09:29;8.32;;;4.32;;
81265;SDS011;70748;52.510;13.410;2023-08-12T02:11:56;7.78;;;4.25;;
81265;SDS011;70748;52.510;13.410;2023-08-12T02:14:22;8.48;;;4.20;;
81265;SDS011;70748;52.510;13.410;2023-08-12T02:16:47;6.10;;;4.10;;
81265;SDS011;70748;52.510;13.410;2023-08-12T02:19:13;7.30;;;4.43;;
81265;SDS011;70748;52.510;13.410;2023-08-12T02:21:39;10.02;;;4.45;;
81265;SDS011;70748;52.510;13.410;2023-08-12T02:24:05;6.53;;;4.10;;
81265;SDS011;70748;52.510;13.410;2023-08-12T02:26:31;6.95;;;3.90;;
81265;SDS011;70748;52.510;13.410;2023-08-12T02:28:57;5.32;;;4.35;;
81265;SDS011;70748;52.510;13.410;2023-08-12T02:31:23;9.80;;;4.38;;
81265;SDS011;70748;52.510;13.410;2023-08-12T02:33:48;7.35;;;3.80;;
81265;SDS011;70748;52.510;13.410;2023-08-12T02:36:17;5.90;;;3.97;;
81265;SDS011;70748;52.510;13.410;2023-08-12T02:38:42;5.75;;;3.90;;
81265;SDS011;70748;52.510;13.410;2023-08-12T02:41:08;10.27;;;4.63;;
81265;SDS011;70748;52.510;13.410;2023-08-12T02:43:34;8.50;;;4.00;;
81265;SDS011;70748;52.510;13.410;2023-08-12T02:46:00;7.10;;;4.20;;
81265;SDS011;70748;52.510;13.410;2023-08-12T02:48:26;11.10;;;4.50;;
81265;SDS011;70748;52.510;13.410;2023-08-12T02:50:51;7.53;;;4.60;;
81265;SDS011;70748;52.510;13.410;2023-08-12T02:53:17;6.47;;;4.00;;
81265;SDS011;70748;52.510;13.410;2023-08-12T02:55:44;8.68;;;4.53;;
81265;SDS011;70748;52.510;13.410;2023-08-12T02:58:10;8.05;;;4.35;;
81265;SDS011;70748;52.510;13.410;2023-08-12T03:00:36;7.25;;;4.35;;
81265;SDS011;70748;52.510;13.410;2023-08-12T03:03:02;6.30;;;3.97;;
81265;SDS011;70748;52.510;13.410;2023-08-12T03:05:28;7.20;;;4.22;;
81265;SDS011;70748;52.510;13.410;2023-08-12T03:07:53;9.50;;;4.72;;
81265;SDS011;70748;52.510;13.410;2023-08-12T03:10:19;6.80;;;4.07;;
81265;SDS011;70748;52.510;13.410;2023-08-12T03:12:45;9.68;;;4.32;;
81265;SDS011;70748;52.510;13.410;2023-08-12T03:15:10;7.05;;;4.55;;
81265;SDS011;70748;52.510;13.410;2023-08-12T03:17:36;10.65;;;4.55;;
81265;SDS011;70748;52.510;13.410;2023-08-12T03:22:33;6.60;;;4.07;;
81265;SDS011;70748;52.510;13.410;2023-08-12T03:25:00;8.15;;;4.28;;
81265;SDS011;70748;52.510;13.410;2023-08-12T03:27:26;5.50;;;4.10;;
81265;SDS011;70748;52.510;13.410;2023-08-12T03:29:51;6.68;;;4.20;;
81265;SDS011;70748;52.510;13.410;2023-08-12T03:32:17;9.90;;;4.22;;
81265;SDS011;70748;52.510;13.410;2023-08-12T03:34:43;6.68;;;4.47;;
81265;SDS011;70748;52.510;13.410;2023-08-12T03:37:08;8.57;;;4.28;;
81265;SDS011;70748;52.510;13.410;2023-08-12T03:39:34;6.80;;;3.95;;
81265;SDS011;70748;52.510;13.410;2023-08-12T03:42:00;7.65;;;4.35;;
81265;SDS011;70748;52.510;13.410;2023-08-12T03:44:25;10.13;;;3.90;;
81265;SDS011;70748;52.510;13.410;2023-08-12T03:46:51;9.35;;;4.57;;
81265;SDS011;70748;52.510;13.410;2023-08-12T03:49:17;7.35;;;4.50;;
81265;SDS011;70748;52.510;13.410;2023-08-12T03:51:42;7.47;;;4.32;;
81265;SDS011;70748;52.510;13.410;2023-08-12T03:54:08;6.45;;;4.50;;
81265;SDS011;70748;52.510;13.410;2023-08-12T03:56:33;10.25;;;4.63;;
81265;SDS011;70748;52.510;13.410;2023-08-12T03:58:59;7.45;;;4.20;;
81265;SDS011;70748;52.510;13.410;2023-08-12T04:01:25;5.88;;;3.80;;
81265;SDS011;70748;52.510;13.410;2023-08-12T04:03:50;6.95;;;4.72;;
81265;SDS011;70748;52.510;13.410;2023-08-12T04:06:16;5.80;;;4.47;;
81265;SDS011;70748;52.510;13.410;2023-08-12T04:08:42;8.00;;;4.20;;
81265;SDS011;70748;52.510;13.410;2023-08-12T04:11:07;8.40;;;4.38;;
81265;SDS011;70748;52.510;13.410;2023-08-12T04:13:33;7.93;;;4.68;;
81265;SDS011;70748;52.510;13.410;2023-08-12T04:15:58;5.35;;;3.78;;
81265;SDS011;70748;52.510;13.410;2023-08-12T04:18:24;11.05;;;4.53;;
81265;SDS011;70748;52.510;13.410;2023-08-12T04:20:50;8.25;;;4.28;;
81265;SDS011;70748;52.510;13.410;2023-08-12T04:23:17;5.32;;;4.32;;
81265;SDS011;70748;52.510;13.410;2023-08-12T04:25:44;8.75;;;4.50;;
81265;SDS011;70748;52.510;13.410;2023-08-12T04:28:12;8.18;;;4.70;;
81265;SDS011;70748;52.510;13.410;2023-08-12T04:30:42;8.15;;;4.20;;
81265;SDS011;70748;52.510;13.410;2023-08-12T04:33:08;8.95;;;4.63;;
81265;SDS011;70748;52.510;13.410;2023-08-12T04:35:34;11.30;;;4.38;;
81265;SDS011;70748;52.510;13.410;2023-08-12T04:37:59;9.20;;;4.55;;
81265;SDS011;70748;52.510;13.410;2023-08-12T04:40:25;8.13;;;3.95;;
81265;SDS011;70748;52.510;13.410;2023-08-12T04:42:51;5.82;;;4.00;;
81265;SDS011;70748;52.510;13.410;2023-08-12T04:45:16;9.25;;;4.07;;
81265;SDS011;70748;52.510;13.410;2023-08-12T04:47:42;8.18;;;4.22;;
81265;SDS011;70748;52.510;13.410;2023-08-12T04:50:08;4.53;;;4.03;;
81265;SDS011;70748;52.510;13.410;2023-08-12T04:52:33;8.50;;;3.95;;
81265;SDS011;70748;52.510;13.410;2023-08-12T04:54:59;9.35;;;3.90;;
81265;SDS011;70748;52.510;13.410;2023-08-12T04:57:25;13.02;;;4.47;;
81265;SDS011;70748;52.510;13.410;2023-08-12T04:59:51;10.40;;;4.00;;
81265;SDS011;70748;52.510;13.410;2023-08-12T05:02:16;6.47;;;4.30;;
81265;SDS011;70748;52.510;13.410;2023-08-12T05:04:47;6.18;;;4.07;;
81265;SDS011;70748;52.510;13.410;2023-08-12T05:07:16;5.60;;;4.00;;
81265;SDS011;70748;52.510;13.410;2023-08-12T05:09:42;7.88;;;4.00;;
81265;SDS011;70748;52.510;13.410;2023-08-12T05:12:11;8.25;;;4.38;;
81265;SDS011;70748;52.510;13.410;2023-08-12T05:14:37;9.88;;;3.90;;
81265;SDS011;70748;52.510;13.410;2023-08-12T05:17:04;8.95;;;4.13;;
81265;SDS011;70748;52.510;13.410;2023-08-12T05:19:30;9.52;;;4.32;;
81265;SDS011;70748;52.510;13.410;2023-08-12T05:21:56;14.50;;;4.00;;
81265;SDS011;70748;52.510;13.410;2023-08-12T05:24:22;6.07;;;3.70;;
81265;SDS011;70748;52.510;13.410;2023-08-12T05:26:47;6.90;;;3.80;;
81265;SDS011;70748;52.510;13.410;2023-08-12T05:29:13;5.47;;;3.33;;
81265;SDS011;70748;52.510;13.410;2023-08-12T05:31:39;5.60;;;3.60;;
81265;SDS011;70748;52.510;13.410;2023-08-12T05:34:04;6.55;;;3.95;;
81265;SDS011;70748;52.510;13.410;2023-08-12T05:36:30;5.93;;;4.00;;
81265;SDS011;70748;52.510;13.410;2023-08-12T05:38:56;11.30;;;3.75;;
81265;SDS011;70748;52.510;13.410;2023-08-12T05:41:22;7.65;;;3.47;;
81265;SDS011;70748;52.510;13.410;2023-08-12T05:43:48;5.22;;;3.05;;
81265;SDS011;70748;52.510;13.410;2023-08-12T05:46:13;8.38;;;3.40;;
81265;SDS011;70748;52.510;13.410;2023-08-12T05:48:39;7.22;;;3.47;;
81265;SDS011;70748;52.510;13.410;2023-08-12T05:51:05;15.32;;;3.72;;
81265;SDS011;70748;52.510;13.410;2023-08-12T05:53:31;6.78;;;3.30;;
81265;SDS011;70748;52.510;13.410;2023-08-12T05:55:57;7.60;;;3.30;;
81265;SDS011;70748;52.510;13.410;2023-08-12T05:58:23;7.38;;;3.40;;
81265;SDS011;70748;52.510;13.410;2023-08-12T06:00:49;9.52;;;3.47;;
81265;SDS011;70748;52.510;13.410;2023-08-12T06:03:15;6.07;;;3.60;;
81265;SDS011;70748;52.510;13.410;2023-08-12T06:05:41;6.82;;;3.65;;
81265;SDS011;70748;52.510;13.410;2023-08-12T06:08:09;10.07;;;3.63;;
81265;SDS011;70748;52.510;13.410;2023-08-12T06:10:35;10.57;;;4.05;;
81265;SDS011;70748;52.510;13.410;2023-08-12T06:13:00;6.13;;;3.35;;
81265;SDS011;70748;52.510;13.410;2023-08-12T06:15:26;8.70;;;3.42;;
81265;SDS011;70748;52.510;13.410;2023-08-12T06:17:52;11.15;;;3.40;;
81265;SDS011;70748;52.510;13.410;2023-08-12T06:20:17;10.27;;;4.00;;
81265;SDS011;70748;52.510;13.410;2023-08-12T06:22:43;9.35;;;3.83;;
81265;SDS011;70748;52.510;13.410;2023-08-12T06:25:09;11.48;;;4.25;;
81265;SDS011;70748;52.510;13.410;2023-08-12T06:27:34;6.82;;;3.63;;
81265;SDS011;70748;52.510;13.410;2023-08-12T06:30:00;10.00;;;3.50;;
81265;SDS011;70748;52.510;13.410;2023-08-12T06:32:25;8.80;;;3.67;;
81265;SDS011;70748;52.510;13.410;2023-08-12T06:34:51;7.95;;;3.47;;
81265;SDS011;70748;52.510;13.410;2023-08-12T06:37:17;9.13;;;4.03;;
81265;SDS011;70748;52.510;13.410;2023-08-12T06:39:42;12.95;;;3.60;;
81265;SDS011;70748;52.510;13.410;2023-08-12T06:42:08;5.65;;;3.50;;
81265;SDS011;70748;52.510;13.410;2023-08-12T06:44:34;10.65;;;3.55;;
81265;SDS011;70748;52.510;13.410;2023-08-12T06:46:59;11.35;;;4.00;;
81265;SDS011;70748;52.510;13.410;2023-08-12T06:49:25;8.60;;;3.78;;
81265;SDS011;70748;52.510;13.410;2023-08-12T06:51:50;8.82;;;3.53;;
81265;SDS011;70748;52.510;13.410;2023-08-12T06:54:16;7.57;;;3.78;;
81265;SDS011;70748;52.510;13.410;2023-08-12T06:56:42;9.75;;;3.50;;
81265;SDS011;70748;52.510;13.410;2023-08-12T06:59:08;7.53;;;4.05;;
81265;SDS011;70748;52.510;13.410;2023-08-12T07:01:33;5.50;;;3.42;;
81265;SDS011;70748;52.510;13.410;2023-08-12T07:03:59;8.68;;;3.53;;
81265;SDS011;70748;52.510;13.410;2023-08-12T07:06:25;6.93;;;3.63;;
81265;SDS011;70748;52.510;13.410;2023-08-12T07:08:51;8.60;;;3.92;;
81265;SDS011;70748;52.510;13.410;2023-08-12T07:11:17;6.75;;;3.80;;
81265;SDS011;70748;52.510;13.410;2023-08-12T07:13:43;9.15;;;3.97;;
81265;SDS011;70748;52.510;13.410;2023-08-12T07:18:36;6.45;;;3.45;;
81265;SDS011;70748;52.510;13.410;2023-08-12T07:21:02;7.05;;;3.67;;
81265;SDS011;70748;52.510;13.410;2023-08-12T07:23:28;6.25;;;3.50;;
81265;SDS011;70748;52.510;13.410;2023-08-12T07:25:54;9.82;;;3.17;;
81265;SDS011;70748;52.510;13.410;2023-08-12T07:28:20;9.60;;;3.80;;
81265;SDS011;70748;52.510;13.410;2023-08-12T07:30:47;15.05;;;3.78;;
81265;SDS011;70748;52.510;13.410;2023-08-12T07:33:14;12.07;;;3.88;;
81265;SDS011;70748;52.510;13.410;2023-08-12T07:35:40;8.20;;;3.70;;
81265;SDS011;70748;52.510;13.410;2023-08-12T07:38:06;6.70;;;3.78;;
81265;SDS011;70748;52.510;13.410;2023-08-12T07:40:32;8.48;;;4.15;;
81265;SDS011;70748;52.510;13.410;2023-08-12T07:42:57;10.15;;;4.28;;
81265;SDS011;70748;52.510;13.410;2023-08-12T07:45:23;13.75;;;4.07;;
81265;SDS011;70748;52.510;13.410;2023-08-12T07:47:49;7.32;;;3.70;;
81265;SDS011;70748;52.510;13.410;2023-08-12T07:50:15;6.15;;;3.55;;
81265;SDS011;70748;52.510;13.410;2023-08-12T07:52:41;13.32;;;4.00;;
81265;SDS011;70748;52.510;13.410;2023-08-12T07:55:07;5.78;;;3.35;;
81265;SDS011;70748;52.510;13.410;2023-08-12T07:57:33;7.18;;;3.85;;
81265;SDS011;70748;52.510;13.410;2023-08-12T07:59:58;6.05;;;3.70;;
81265;SDS011;70748;52.510;13.410;2023-08-12T08:02:24;6.47;;;3.80;;
81265;SDS011;70748;52.510;13.410;2023-08-12T08:04:50;6.15;;;3.88;;
81265;SDS011;70748;52.510;13.410;2023-08-12T08:07:16;12.20;;;3.88;;
81265;SDS011;70748;52.510;13.410;2023-08-12T08:09:42;9.77;;;3.75;;
81265;SDS011;70748;52.510;13.410;2023-08-12T08:12:09;12.38;;;4.10;;
81265;SDS011;70748;52.510;13.410;2023-08-12T08:14:35;6.85;;;3.92;;
81265;SDS011;70748;52.510;13.410;2023-08-12T08:17:02;5.88;;;3.75;;
81265;SDS011;70748;52.510;13.410;2023-08-12T08:19:28;7.55;;;3.60;;
81265;SDS011;70748;52.510;13.410;2023-08-12T08:21:54;8.70;;;4.10;;
81265;SDS011;70748;52.510;13.410;2023-08-12T08:24:20;7.65;;;3.75;;
81265;SDS011;70748;52.510;13.410;2023-08-12T08:26:46;7.50;;;4.40;;
81265;SDS011;70748;52.510;13.410;2023-08-12T08:29:12;5.82;;;3.75;;
81265;SDS011;70748;52.510;13.410;2023-08-12T08:31:38;10.02;;;4.03;;
81265;SDS011;70748;52.510;13.410;2023-08-12T08:34:04;6.72;;;3.90;;
81265;SDS011;70748;52.510;13.410;2023-08-12T08:36:29;9.07;;;3.50;;
81265;SDS011;70748;52.510;13.410;2023-08-12T08:38:55;6.18;;;4.05;;
81265;SDS011;70748;52.510;13.410;2023-08-12T08:41:21;7.43;;;4.18;;
81265;SDS011;70748;52.510;13.410;2023-08-12T08:43:48;9.88;;;3.80;;
81265;SDS011;70748;52.510;13.410;2023-08-12T08:46:14;8.52;;;4.53;;
81265;SDS011;70748;52.510;13.410;2023-08-12T08:48:42;6.32;;;3.75;;
81265;SDS011;70748;52.510;13.410;2023-08-12T08:51:09;11.65;;;4.00;;
81265;SDS011;70748;52.510;13.410;2023-08-12T08:53:37;10.00;;;4.80;;
81265;SDS011;70748;52.510;13.410;2023-08-12T08:56:06;6.10;;;4.03;;
81265;SDS011;70748;52.510;13.410;2023-08-12T08:58:33;5.72;;;3.85;;
81265;SDS011;70748;52.510;13.410;2023-08-12T09:00:59;5.80;;;3.80;;
81265;SDS011;70748;52.510;13.410;2023-08-12T09:03:25;8.82;;;4.25;;
81265;SDS011;70748;52.510;13.410;2023-08-12T09:05:51;8.90;;;4.15;;
81265;SDS011;70748;52.510;13.410;2023-08-12T09:08:20;8.60;;;4.38;;
81265;SDS011;70748;52.510;13.410;2023-08-12T09:10:46;7.95;;;3.95;;
81265;SDS011;70748;52.510;13.410;2023-08-12T09:13:13;9.38;;;4.60;;
81265;SDS011;70748;52.510;13.410;2023-08-12T09:15:40;10.43;;;4.75;;
81265;SDS011;70748;52.510;13.410;2023-08-12T09:18:05;8.65;;;4.10;;
81265;SDS011;70748;52.510;13.410;2023-08-12T09:20:32;10.18;;;4.30;;
81265;SDS011;70748;52.510;13.410;2023-08-12T09:23:01;11.90;;;4.57;;
81265;SDS011;70748;52.510;13.410;2023-08-12T09:25:28;6.50;;;4.28;;
81265;SDS011;70748;52.510;13.410;2023-08-12T09:28:00;7.22;;;4.60;;
81265;SDS011;70748;52.510;13.410;2023-08-12T09:30:29;12.60;;;4.63;;
81265;SDS011;70748;52.510;13.410;2023-08-12T09:33:02;7.57;;;4.03;;
81265;SDS011;70748;52.510;13.410;2023-08-12T09:35:35;6.50;;;4.03;;
81265;SDS011;70748;52.510;13.410;2023-08-12T09:38:05;8.23;;;3.90;;
81265;SDS011;70748;52.510;13.410;2023-08-12T09:40:38;5.57;;;4.00;;
81265;SDS011;70748;52.510;13.410;2023-08-12T09:43:04;6.72;;;4.10;;
81265;SDS011;70748;52.510;13.410;2023-08-12T09:45:30;8.13;;;4.20;;
81265;SDS011;70748;52.510;13.410;2023-08-12T09:47:57;9.07;;;4.13;;
81265;SDS011;70748;52.510;13.410;2023-08-12T09:50:27;9.30;;;4.55;;
81265;SDS011;70748;52.510;13.410;2023-08-12T09:52:54;7.43;;;4.20;;
81265;SDS011;70748;52.510;13.410;2023-08-12T09:55:21;5.95;;;4.40;;
81265;SDS011;70748;52.510;13.410;2023-08-12T09:57:49;10.35;;;4.70;;
81265;SDS011;70748;52.510;13.410;2023-08-12T10:00:17;6.75;;;4.65;;
81265;SDS011;70748;52.510;13.410;2023-08-12T10:02:47;7.97;;;4.35;;
81265;SDS011;70748;52.510;13.410;2023-08-12T10:05:24;5.55;;;4.43;;
81265;SDS011;70748;52.510;13.410;2023-08-12T10:07:53;8.90;;;4.20;;
81265;SDS011;70748;52.510;13.410;2023-08-12T10:10:20;9.27;;;4.72;;
81265;SDS011;70748;52.510;13.410;2023-08-12T10:12:47;10.82;;;4.40;;
81265;SDS011;70748;52.510;13.410;2023-08-12T10:15:13;6.78;;;4.75;;
81265;SDS011;70748;52.510;13.410;2023-08-12T10:17:40;6.93;;;4.68;;
81265;SDS011;70748;52.510;13.410;2023-08-12T10:20:08;9.40;;;4.50;;
81265;SDS011;70748;52.510;13.410;2023-08-12T10:22:37;9.50;;;4.27;;
81265;SDS011;70748;52.510;13.410;2023-08-12T10:25:05;6.93;;;4.05;;
81265;SDS011;70748;52.510;13.410;2023-08-12T10:27:33;8.75;;;4.47;;
81265;SDS011;70748;52.510;13.410;2023-08-12T10:30:03;12.45;;;4.97;;
81265;SDS011;70748;52.510;13.410;2023-08-12T10:32:31;5.20;;;4.00;;
81265;SDS011;70748;52.510;13.410;2023-08-12T10:34:57;8.05;;;4.82;;
81265;SDS011;70748;52.510;13.410;2023-08-12T10:37:24;8.85;;;4.70;;
81265;SDS011;70748;52.510;13.410;2023-08-12T10:39:53;6.20;;;4.55;;
81265;SDS011;70748;52.510;13.410;2023-08-12T10:45:08;6.65;;;4.68;;
81265;SDS011;70748;52.510;13.410;2023-08-12T10:48:18;5.65;;;4.57;;
81265;SDS011;70748;52.510;13.410;2023-08-12T10:50:24;14.82;;;5.53;;
81265;SDS011;70748;52.510;13.410;2023-08-12T10:52:52;6.82;;;4.68;;
81265;SDS011;70748;52.510;13.410;2023-08-12T10:55:19;10.67;;;4.93;;
81265;SDS011;70748;52.510;13.410;2023-08-12T10:57:49;9.27;;;4.82;;
81265;SDS011;70748;52.510;13.410;2023-08-12T11:00:17;8.60;;;5.57;;
81265;SDS011;70748;52.510;13.410;2023-08-12T11:02:55;12.13;;;5.40;;
81265;SDS011;70748;52.510;13.410;2023-08-12T11:05:22;8.27;;;4.72;;
81265;SDS011;70748;52.510;13.410;2023-08-12T11:07:58;7.47;;;4.80;;
81265;SDS011;70748;52.510;13.410;2023-08-12T11:10:31;9.55;;;4.60;;
81265;SDS011;70748;52.510;13.410;2023-08-12T11:12:58;6.00;;;4.50;;
81265;SDS011;70748;52.510;13.410;2023-08-12T11:18:02;7.60;;;4.32;;
81265;SDS011;70748;52.510;13.410;2023-08-12T11:20:33;7.75;;;4.40;;
81265;SDS011;70748;52.510;13.410;2023-08-12T11:22:59;7.95;;;4.50;;
81265;SDS011;70748;52.510;13.410;2023-08-12T11:25:28;9.77;;;4.68;;
81265;SDS011;70748;52.510;13.410;2023-08-12T11:27:54;9.05;;;4.78;;
81265;SDS011;70748;52.510;13.410;2023-08-12T11:30:21;6.03;;;4.70;;
81265;SDS011;70748;52.510;13.410;2023-08-12T11:32:51;6.93;;;4.50;;
81265;SDS011;70748;52.510;13.410;2023-08-12T11:35:18;6.57;;;4.15;;
81265;SDS011;70748;52.510;13.410;2023-08-12T11:37:48;8.40;;;4.20;;
81265;SDS011;70748;52.510;13.410;2023-08-12T11:40:17;5.60;;;3.80;;
81265;SDS011;70748;52.510;13.410;2023-08-12T11:42:44;9.38;;;4.20;;
81265;SDS011;70748;52.510;13.410;2023-08-12T11:45:12;6.75;;;4.05;;
81265;SDS011;70748;52.510;13.410;2023-08-12T11:47:39;6.10;;;4.03;;
81265;SDS011;70748;52.510;13.410;2023-08-12T11:50:07;5.82;;;3.88;;
81265;SDS011;70748;52.510;13.410;2023-08-12T11:52:34;6.97;;;3.67;;
81265;SDS011;70748;52.510;13.410;2023-08-12T11:55:01;6.03;;;3.53;;
81265;SDS011;70748;52.510;13.410;2023-08-12T11:57:27;13.45;;;4.00;;
81265;SDS011;70748;52.510;13.410;2023-08-12T11:59:59;7.07;;;4.40;;
81265;SDS011;70748;52.510;13.410;2023-08-12T12:02:28;11.02;;;3.90;;
81265;SDS011;70748;52.510;13.410;2023-08-12T12:04:54;4.47;;;3.50;;
81265;SDS011;70748;52.510;13.410;2023-08-12T12:07:21;7.88;;;3.80;;
81265;SDS011;70748;52.510;13.410;2023-08-12T12:09:51;4.60;;;3.53;;
81265;SDS011;70748;52.510;13.410;2023-08-12T12:12:24;5.72;;;3.70;;
81265;SDS011;70748;52.510;13.410;2023-08-12T12:14:53;11.23;;;4.18;;
81265;SDS011;70748;52.510;13.410;2023-08-12T12:17:22;5.63;;;4.10;;
81265;SDS011;70748;52.510;13.410;2023-08-12T12:19:55;5.68;;;4.07;;
81265;SDS011;70748;52.510;13.410;2023-08-12T12:22:31;12.07;;;4.15;;
81265;SDS011;70748;52.510;13.410;2023-08-12T12:25:05;5.55;;;4.03;;
81265;SDS011;70748;52.510;13.410;2023-08-12T12:27:34;6.88;;;4.07;;
81265;SDS011;70748;52.510;13.410;2023-08-12T12:30:09;7.28;;;4.35;;
81265;SDS011;70748;52.510;13.410;2023-08-12T12:32:37;8.32;;;3.78;;
81265;SDS011;70748;52.510;13.410;2023-08-12T12:35:03;7.60;;;4.40;;
81265;SDS011;70748;52.510;13.410;2023-08-12T12:37:32;7.10;;;3.95;;
81265;SDS011;70748;52.510;13.410;2023-08-12T12:39:57;5.63;;;3.70;;
81265;SDS011;70748;52.510;13.410;2023-08-12T12:42:23;5.55;;;3.88;;
81265;SDS011;70748;52.510;13.410;2023-08-12T12:44:49;10.38;;;4.35;;
81265;SDS011;70748;52.510;13.410;2023-08-12T12:47:15;8.32;;;4.28;;
81265;SDS011;70748;52.510;13.410;2023-08-12T12:49:41;6.55;;;4.22;;
81265;SDS011;70748;52.510;13.410;2023-08-12T12:52:08;10.82;;;4.78;;
81265;SDS011;70748;52.510;13.410;2023-08-12T12:54:33;5.70;;;4.30;;
81265;SDS011;70748;52.510;13.410;2023-08-12T12:56:59;7.47;;;4.38;;
81265;SDS011;70748;52.510;13.410;2023-08-12T12:59:26;8.32;;;4.70;;
81265;SDS011;70748;52.510;13.410;2023-08-12T13:01:52;6.80;;;4.43;;
81265;SDS011;70748;52.510;13.410;2023-08-12T13:04:18;7.40;;;4.45;;
81265;SDS011;70748;52.510;13.410;2023-08-12T13:06:44;7.10;;;3.88;;
81265;SDS011;70748;52.510;13.410;2023-08-12T13:09:10;5.43;;;4.15;;
81265;SDS011;70748;52.510;13.410;2023-08-12T13:11:35;7.18;;;4.93;;
81265;SDS011;70748;52.510;13.410;2023-08-12T13:14:02;6.22;;;4.75;;
81265;SDS011;70748;52.510;13.410;2023-08-12T13:16:28;6.32;;;4.57;;
81265;SDS011;70748;52.510;13.410;2023-08-12T13:18:54;6.93;;;4.13;;
81265;SDS011;70748;52.510;13.410;2023-08-12T13:21:20;7.45;;;4.45;;
81265;SDS011;70748;52.510;13.410;2023-08-12T13:23:45;6.75;;;4.65;;
81265;SDS011;70748;52.510;13.410;2023-08-12T13:26:11;10.20;;;7.85;;
81265;SDS011;70748;52.510;13.410;2023-08-12T13:28:37;7.82;;;5.20;;
81265;SDS011;70748;52.510;13.410;2023-08-12T13:31:02;13.57;;;5.50;;
81265;SDS011;70748;52.510;13.410;2023-08-12T13:33:28;8.40;;;4.80;;
81265;SDS011;70748;52.510;13.410;2023-08-12T13:35:54;9.55;;;5.60;;
81265;SDS011;70748;52.510;13.410;2023-08-12T13:38:19;7.80;;;5.07;;
81265;SDS011;70748;52.510;13.410;2023-08-12T13:40:45;5.38;;;4.50;;
81265;SDS011;70748;52.510;13.410;2023-08-12T13:43:11;6.78;;;4.80;;
81265;SDS011;70748;52.510;13.410;2023-08-12T13:45:36;9.13;;;5.95;;
81265;SDS011;70748;52.510;13.410;2023-08-12T13:48:02;8.32;;;4.95;;
81265;SDS011;70748;52.510;13.410;2023-08-12T13:50:28;7.68;;;4.43;;
81265;SDS011;70748;52.510;13.410;2023-08-12T13:52:54;10.70;;;4.60;;
81265;SDS011;70748;52.510;13.410;2023-08-12T13:55:19;6.93;;;4.20;;
81265;SDS011;70748;52.510;13.410;2023-08-12T13:57:48;10.05;;;4.30;;
81265;SDS011;70748;52.510;13.410;2023-08-12T14:00:14;7.43;;;3.92;;
81265;SDS011;70748;52.510;13.410;2023-08-12T14:02:40;6.90;;;4.05;;
81265;SDS011;70748;52.510;13.410;2023-08-12T14:05:06;5.10;;;4.25;;
81265;SDS011;70748;52.510;13.410;2023-08-12T14:07:32;5.82;;;3.78;;
81265;SDS011;70748;52.510;13.410;2023-08-12T14:09:58;5.32;;;4.28;;
81265;SDS011;70748;52.510;13.410;2023-08-12T14:12:24;6.32;;;3.88;;
81265;SDS011;70748;52.510;13.410;2023-08-12T14:14:50;5.60;;;4.10;;
81265;SDS011;70748;52.510;13.410;2023-08-12T14:17:16;5.35;;;3.28;;
81265;SDS011;70748;52.510;13.410;2023-08-12T14:19:52;9.27;;;3.85;;
81265;SDS011;70748;52.510;13.410;2023-08-12T14:22:21;4.85;;;3.60;;
81265;SDS011;70748;52.510;13.410;2023-08-12T14:24:46;6.22;;;3.30;;
81265;SDS011;70748;52.510;13.410;2023-08-12T14:27:15;3.88;;;3.30;;
81265;SDS011;70748;52.510;13.410;2023-08-12T14:29:44;5.88;;;3.05;;
81265;SDS011;70748;52.510;13.410;2023-08-12T14:32:11;4.18;;;3.47;;
81265;SDS011;70748;52.510;13.410;2023-08-12T14:34:37;6.45;;;3.72;;
81265;SDS011;70748;52.510;13.410;2023-08-12T14:37:02;8.77;;;3.70;;
81265;SDS011;70748;52.510;13.410;2023-08-12T14:39:28;4.57;;;3.65;;
81265;SDS011;70748;52.510;13.410;2023-08-12T14:41:54;8.45;;;3.38;;